Time;durP1;ratioP1;P1;durP2;ratioP2;P2;SDS_P1;SDS_P2;PMS_P1;PMS_P2;Temp;Humidity;BMP_temperature;BMP_pressure;BME280_temperature;BME280_humidity;BME280_pressure;Samples;Min_cycle;Max_cycle;Signal;HPM_P1;HPM_P2
2021/12/30 00:01:25;;;;;;;13.07;7.80;;;9.80;99.90;;;;;;4980576;28;20191;-71
2021/12/30 00:03:52;;;;;;;10.57;6.30;;;9.80;99.90;;;;;;4982348;28;20214;-70
2021/12/30 00:06:22;;;;;;;12.77;7.40;;;9.90;99.90;;;;;;4978975;28;20694;-69
2021/12/30 00:08:51;;;;;;;11.70;7.00;;;10.10;99.90;;;;;;4981841;28;20199;-71
2021/12/30 00:11:17;;;;;;;14.90;6.47;;;10.10;99.90;;;;;;4987780;28;20489;-71
2021/12/30 00:13:45;;;;;;;10.50;6.00;;;10.10;99.90;;;;;;4984656;28;20276;-71
2021/12/30 00:16:13;;;;;;;11.13;5.70;;;10.10;99.90;;;;;;4986268;28;20282;-71
2021/12/30 00:18:41;;;;;;;7.90;5.43;;;10.10;99.90;;;;;;4986538;28;20193;-72
2021/12/30 00:21:07;;;;;;;8.57;4.67;;;10.10;99.90;;;;;;4988383;28;20717;-71
2021/12/30 00:23:34;;;;;;;8.07;4.63;;;10.20;99.90;;;;;;4976384;28;20669;-71
2021/12/30 00:26:02;;;;;;;7.33;4.20;;;10.30;99.90;;;;;;4985497;28;20212;-71
2021/12/30 00:28:28;;;;;;;6.93;3.30;;;10.50;99.90;;;;;;4987898;28;20659;-71
2021/12/30 00:30:55;;;;;;;4.93;2.90;;;10.60;99.90;;;;;;4990362;28;20193;-72
2021/12/30 00:33:23;;;;;;;5.93;2.73;;;10.80;99.90;;;;;;4990129;28;20607;-71
2021/12/30 00:35:51;;;;;;;6.17;2.80;;;10.80;99.90;;;;;;4983298;28;20202;-71
2021/12/30 00:38:18;;;;;;;6.63;2.70;;;10.80;99.90;;;;;;4984067;28;20207;-72
2021/12/30 00:40:45;;;;;;;5.07;2.57;;;10.90;99.90;;;;;;4989069;28;20200;-71
2021/12/30 00:43:13;;;;;;;6.80;2.20;;;11.00;99.90;;;;;;4989028;28;20590;-72
2021/12/30 00:45:39;;;;;;;3.67;2.17;;;11.00;99.90;;;;;;4986903;28;20714;-72
2021/12/30 00:48:07;;;;;;;3.40;2.20;;;11.10;99.90;;;;;;4983261;28;20203;-72
2021/12/30 00:50:36;;;;;;;3.63;2.30;;;11.00;99.90;;;;;;4987583;28;20263;-70
2021/12/30 00:53:05;;;;;;;5.97;1.83;;;10.80;99.90;;;;;;4986506;28;20200;-70
2021/12/30 00:55:32;;;;;;;4.80;1.80;;;10.70;99.90;;;;;;4987584;28;20231;-70
2021/12/30 00:57:58;;;;;;;3.73;1.73;;;10.70;99.90;;;;;;4989173;28;20200;-70
2021/12/30 01:00:26;;;;;;;4.83;1.97;;;10.70;99.90;;;;;;4980283;28;20254;-70
2021/12/30 01:02:53;;;;;;;4.17;1.90;;;10.70;99.90;;;;;;4975221;28;20491;-70
2021/12/30 01:05:21;;;;;;;6.30;2.17;;;10.80;99.90;;;;;;4986511;28;20257;-70
2021/12/30 01:07:47;;;;;;;3.43;1.80;;;10.80;99.90;;;;;;4987412;28;20208;-71
2021/12/30 01:10:16;;;;;;;2.90;1.57;;;10.80;99.90;;;;;;4980565;28;20216;-72
2021/12/30 01:12:44;;;;;;;3.63;1.77;;;10.80;99.90;;;;;;4978727;28;20231;-68
2021/12/30 01:15:14;;;;;;;6.83;1.90;;;10.80;99.90;;;;;;4987840;28;20222;-72
2021/12/30 01:17:53;;;;;;;6.30;1.97;;;10.90;99.90;;;;;;4990055;28;20207;-71
2021/12/30 01:20:21;;;;;;;7.00;2.10;;;10.70;99.90;;;;;;5000936;28;20270;-70
2021/12/30 01:22:49;;;;;;;5.60;1.70;;;10.80;99.90;;;;;;4987444;28;20730;-72
2021/12/30 01:25:17;;;;;;;5.63;1.50;;;10.80;99.90;;;;;;4987736;28;20219;-70
2021/12/30 01:27:44;;;;;;;4.60;1.67;;;10.70;99.90;;;;;;4987093;28;20218;-70
2021/12/30 01:30:14;;;;;;;3.47;1.40;;;10.80;99.90;;;;;;4987528;28;20196;-70
2021/12/30 01:32:41;;;;;;;4.87;1.47;;;10.80;99.90;;;;;;4989041;28;20208;-69
2021/12/30 01:35:11;;;;;;;6.67;1.60;;;10.80;99.90;;;;;;4988022;28;20266;-70
2021/12/30 01:37:38;;;;;;;5.60;1.53;;;10.90;99.90;;;;;;4987977;28;20255;-73
2021/12/30 01:40:11;;;;;;;4.83;1.50;;;10.90;99.90;;;;;;4980356;28;20201;-70
2021/12/30 01:42:37;;;;;;;4.80;1.90;;;10.90;99.90;;;;;;4983473;28;20205;-75
2021/12/30 01:45:05;;;;;;;3.33;1.37;;;11.00;99.90;;;;;;4986474;28;20219;-70
2021/12/30 01:47:32;;;;;;;2.97;1.20;;;11.10;99.90;;;;;;4982627;28;20205;-70
2021/12/30 01:49:59;;;;;;;5.13;1.73;;;11.10;99.90;;;;;;4985718;28;20606;-70
2021/12/30 01:52:26;;;;;;;3.33;1.30;;;11.10;99.90;;;;;;4984866;28;20200;-70
2021/12/30 01:54:52;;;;;;;4.73;1.40;;;11.10;99.90;;;;;;4988670;28;20232;-74
2021/12/30 01:57:20;;;;;;;8.87;1.40;;;11.20;99.90;;;;;;4986032;28;20199;-73
2021/12/30 01:59:47;;;;;;;7.97;1.67;;;11.20;99.90;;;;;;4988205;28;20195;-72
2021/12/30 02:02:14;;;;;;;6.23;1.30;;;11.20;99.90;;;;;;4985528;28;21706;-74
2021/12/30 02:04:41;;;;;;;3.70;1.60;;;11.30;99.90;;;;;;4987280;28;20248;-73
2021/12/30 02:07:09;;;;;;;4.77;1.60;;;11.40;99.90;;;;;;4981950;28;20284;-71
2021/12/30 02:09:36;;;;;;;5.87;1.87;;;11.30;99.90;;;;;;4986092;28;20259;-72
2021/12/30 02:12:04;;;;;;;3.63;1.70;;;11.30;99.90;;;;;;4985190;28;20226;-73
2021/12/30 02:14:35;;;;;;;7.00;1.67;;;11.30;99.90;;;;;;4978466;28;20232;-71
2021/12/30 02:17:05;;;;;;;5.50;1.73;;;11.30;99.90;;;;;;4985918;28;20202;-72
2021/12/30 02:19:32;;;;;;;4.87;1.60;;;11.30;99.90;;;;;;4985479;28;20200;-72
2021/12/30 02:21:59;;;;;;;3.87;1.57;;;11.40;99.90;;;;;;4989176;28;20205;-74
2021/12/30 02:24:25;;;;;;;3.07;1.57;;;11.40;99.90;;;;;;4990427;28;20213;-71
2021/12/30 02:26:52;;;;;;;4.43;1.63;;;11.30;99.90;;;;;;4990486;28;20215;-71
2021/12/30 02:29:19;;;;;;;9.03;2.00;;;11.20;99.90;;;;;;4980182;28;20260;-75
2021/12/30 02:31:46;;;;;;;8.30;2.20;;;11.30;99.90;;;;;;4989654;28;20303;-72
2021/12/30 02:34:15;;;;;;;3.63;1.73;;;11.20;99.90;;;;;;4988933;28;20316;-73
2021/12/30 02:36:47;;;;;;;6.27;1.70;;;11.20;99.90;;;;;;4985238;28;20202;-72
2021/12/30 02:39:16;;;;;;;3.67;1.43;;;11.20;99.90;;;;;;4979641;28;20194;-72
2021/12/30 02:41:43;;;;;;;5.00;1.73;;;11.10;99.90;;;;;;4987069;28;20198;-72
2021/12/30 02:44:10;;;;;;;4.07;1.70;;;11.00;99.90;;;;;;4980532;28;20224;-72
2021/12/30 02:46:39;;;;;;;7.03;1.80;;;11.00;99.90;;;;;;4987154;28;20665;-73
2021/12/30 02:49:06;;;;;;;6.33;1.80;;;11.00;99.90;;;;;;4986763;28;20197;-72
2021/12/30 02:51:34;;;;;;;5.73;1.70;;;11.10;99.90;;;;;;4982990;28;20208;-73
2021/12/30 02:54:02;;;;;;;3.60;1.83;;;11.10;99.90;;;;;;4989950;28;20220;-72
2021/12/30 02:56:29;;;;;;;4.70;1.93;;;11.10;99.90;;;;;;4991231;28;20188;-72
2021/12/30 02:58:56;;;;;;;6.20;1.93;;;11.10;99.90;;;;;;4990593;28;20207;-73
2021/12/30 03:01:24;;;;;;;4.07;1.50;;;11.00;99.90;;;;;;4988197;28;20614;-74
2021/12/30 03:03:51;;;;;;;3.53;1.50;;;11.10;99.90;;;;;;4988483;28;20318;-73
2021/12/30 03:06:18;;;;;;;4.43;1.83;;;11.10;99.90;;;;;;4991319;28;20190;-74
2021/12/30 03:08:46;;;;;;;5.43;1.73;;;11.10;99.90;;;;;;4990446;28;20219;-71
2021/12/30 03:11:13;;;;;;;6.40;1.33;;;11.10;99.90;;;;;;4991319;28;20196;-71
2021/12/30 03:13:43;;;;;;;3.70;1.50;;;11.20;99.90;;;;;;4988943;28;20287;-71
2021/12/30 03:16:14;;;;;;;4.83;1.53;;;11.20;99.90;;;;;;4991024;28;20434;-73
2021/12/30 03:18:44;;;;;;;6.03;1.57;;;11.10;99.90;;;;;;4988407;28;20197;-72
2021/12/30 03:21:13;;;;;;;4.87;1.60;;;11.10;99.90;;;;;;4989926;28;20244;-71
2021/12/30 03:23:40;;;;;;;3.33;1.40;;;11.20;99.90;;;;;;4988603;28;20221;-72
2021/12/30 03:26:08;;;;;;;4.60;1.67;;;11.10;99.90;;;;;;4989685;28;20204;-72
2021/12/30 03:28:35;;;;;;;7.80;1.70;;;11.10;99.90;;;;;;4986678;28;20204;-75
2021/12/30 03:31:02;;;;;;;8.80;1.87;;;11.10;99.90;;;;;;4990912;28;20587;-72
2021/12/30 03:33:31;;;;;;;6.00;1.90;;;11.10;99.90;;;;;;4988715;28;20207;-72
2021/12/30 03:35:59;;;;;;;5.80;1.93;;;11.00;99.90;;;;;;4989469;28;20221;-71
2021/12/30 03:38:33;;;;;;;7.80;1.77;;;11.10;99.90;;;;;;4989278;28;20235;-75
2021/12/30 03:41:01;;;;;;;5.93;1.90;;;11.10;99.90;;;;;;4988221;28;20185;-71
2021/12/30 03:43:28;;;;;;;8.97;2.23;;;11.10;99.90;;;;;;4988138;28;20262;-75
2021/12/30 03:45:55;;;;;;;6.93;2.30;;;11.20;99.90;;;;;;4989456;28;20563;-71
2021/12/30 03:48:23;;;;;;;6.23;3.00;;;11.20;99.90;;;;;;4984768;28;20192;-72
2021/12/30 03:50:51;;;;;;;5.73;2.10;;;11.20;99.90;;;;;;4987586;28;20211;-72
2021/12/30 03:53:18;;;;;;;7.13;2.60;;;11.20;99.90;;;;;;4981861;28;20226;-76
2021/12/30 03:55:46;;;;;;;9.37;3.40;;;11.30;99.90;;;;;;4985371;28;20241;-73
2021/12/30 03:58:13;;;;;;;7.13;2.10;;;11.30;99.90;;;;;;4989221;28;20684;-72
2021/12/30 04:00:40;;;;;;;5.57;2.40;;;11.30;99.90;;;;;;4987472;28;20203;-73
2021/12/30 04:03:07;;;;;;;4.20;1.90;;;11.30;99.90;;;;;;4979859;28;20197;-73
2021/12/30 04:05:34;;;;;;;6.30;2.27;;;11.30;99.90;;;;;;4981686;28;20231;-73
2021/12/30 04:08:00;;;;;;;6.83;2.10;;;11.40;99.90;;;;;;4986546;28;20201;-78
2021/12/30 04:10:27;;;;;;;7.83;2.47;;;11.40;99.90;;;;;;4984574;28;20233;-74
2021/12/30 04:12:54;;;;;;;7.33;2.37;;;11.50;99.90;;;;;;4989048;28;20210;-79
2021/12/30 04:15:21;;;;;;;9.47;2.20;;;11.60;99.90;;;;;;4985629;28;20696;-78
2021/12/30 04:17:47;;;;;;;5.27;2.30;;;11.60;99.90;;;;;;4974083;28;20595;-78
2021/12/30 04:20:16;;;;;;;5.07;2.00;;;11.60;99.90;;;;;;4976748;28;20199;-79
2021/12/30 04:22:42;;;;;;;5.53;2.23;;;11.60;99.90;;;;;;4988897;28;20210;-77
2021/12/30 04:25:12;;;;;;;6.57;2.27;;;11.70;99.90;;;;;;4988897;28;20234;-80
2021/12/30 04:27:39;;;;;;;5.97;2.00;;;11.70;99.90;;;;;;4988480;28;20562;-81
2021/12/30 04:30:08;;;;;;;8.13;2.00;;;11.80;99.90;;;;;;4990648;28;20255;-77
2021/12/30 04:32:35;;;;;;;5.13;2.37;;;11.80;99.90;;;;;;4982695;28;20213;-78
2021/12/30 04:35:02;;;;;;;6.20;2.37;;;11.70;99.90;;;;;;4989185;28;20619;-78
2021/12/30 04:37:29;;;;;;;7.10;2.20;;;11.80;99.90;;;;;;4987738;28;20198;-78
2021/12/30 04:39:55;;;;;;;3.70;1.80;;;11.70;99.90;;;;;;4985773;28;20541;-80
2021/12/30 04:42:22;;;;;;;11.90;3.03;;;11.70;99.90;;;;;;4985087;28;20702;-79
2021/12/30 04:44:49;;;;;;;6.40;2.37;;;11.70;99.90;;;;;;4986513;28;20216;-78
2021/12/30 04:47:16;;;;;;;7.83;2.00;;;11.70;99.90;;;;;;4985085;28;20208;-81
2021/12/30 04:49:43;;;;;;;7.07;2.20;;;11.70;99.90;;;;;;4989103;28;20208;-80
2021/12/30 04:52:10;;;;;;;5.90;2.13;;;11.70;99.90;;;;;;4986866;28;20603;-80
2021/12/30 04:54:36;;;;;;;8.67;2.10;;;11.70;99.90;;;;;;4990206;28;20608;-79
2021/12/30 04:57:03;;;;;;;7.60;2.30;;;11.70;99.90;;;;;;4982442;28;20194;-80
2021/12/30 04:59:30;;;;;;;6.17;2.47;;;11.70;99.90;;;;;;4988567;28;20199;-77
2021/12/30 05:01:58;;;;;;;9.63;2.20;;;11.80;99.90;;;;;;4986601;28;20653;-79
2021/12/30 05:04:25;;;;;;;7.60;2.60;;;11.80;99.90;;;;;;4986481;28;20212;-80
2021/12/30 05:06:52;;;;;;;7.50;3.03;;;11.80;99.90;;;;;;4986740;28;20194;-79
2021/12/30 05:09:19;;;;;;;8.83;3.07;;;11.80;99.90;;;;;;4988313;28;20579;-80
2021/12/30 05:11:46;;;;;;;6.13;3.03;;;11.80;99.90;;;;;;4988511;28;20277;-79
2021/12/30 05:14:13;;;;;;;12.17;3.33;;;11.90;99.90;;;;;;4989744;28;20284;-78
2021/12/30 05:16:40;;;;;;;10.00;3.17;;;11.80;99.90;;;;;;4989335;28;20230;-79
2021/12/30 05:19:07;;;;;;;8.83;3.40;;;11.80;99.90;;;;;;4989103;28;20220;-79
2021/12/30 05:21:34;;;;;;;8.60;3.03;;;11.80;99.90;;;;;;4982581;28;20213;-79
2021/12/30 05:24:05;;;;;;;6.23;2.93;;;11.80;99.90;;;;;;4983503;28;20213;-77
2021/12/30 05:26:32;;;;;;;8.63;3.30;;;11.70;99.90;;;;;;4988377;28;20211;-80
2021/12/30 05:28:59;;;;;;;7.13;2.97;;;11.80;99.90;;;;;;4988797;28;20676;-76
2021/12/30 05:31:27;;;;;;;9.00;3.20;;;11.80;99.90;;;;;;4988194;28;20282;-75
2021/12/30 05:33:54;;;;;;;5.97;2.90;;;11.90;99.90;;;;;;4986584;28;20320;-78
2021/12/30 05:36:20;;;;;;;7.40;3.13;;;11.80;99.90;;;;;;4980935;28;20224;-80
2021/12/30 05:38:48;;;;;;;6.87;2.87;;;11.80;99.90;;;;;;4989328;28;20197;-79
2021/12/30 05:41:14;;;;;;;7.27;3.67;;;11.80;99.90;;;;;;4983734;28;20350;-78
2021/12/30 05:43:41;;;;;;;7.80;3.50;;;12.10;99.90;;;;;;4985293;28;20279;-77
2021/12/30 05:46:08;;;;;;;7.37;3.13;;;12.00;99.90;;;;;;4990420;28;20201;-78
2021/12/30 05:48:35;;;;;;;8.30;3.07;;;11.90;99.90;;;;;;4996427;28;20706;-75
2021/12/30 05:51:02;;;;;;;8.63;3.03;;;11.90;99.90;;;;;;4991998;28;20256;-75
2021/12/30 05:53:30;;;;;;;8.13;3.20;;;11.80;99.90;;;;;;4990894;28;20256;-78
2021/12/30 05:55:57;;;;;;;4.57;2.87;;;11.80;99.90;;;;;;4988272;28;20217;-77
2021/12/30 05:58:24;;;;;;;6.80;3.33;;;11.80;99.90;;;;;;4992934;28;20253;-76
2021/12/30 06:00:51;;;;;;;9.10;3.60;;;11.90;99.90;;;;;;4983291;28;20210;-81
2021/12/30 06:03:19;;;;;;;10.07;3.67;;;12.00;99.90;;;;;;4985182;28;20199;-78
2021/12/30 06:05:47;;;;;;;9.67;4.90;;;12.00;99.90;;;;;;4989300;28;20295;-79
2021/12/30 06:08:14;;;;;;;8.57;4.17;;;12.00;99.90;;;;;;4988710;28;20200;-78
2021/12/30 06:10:42;;;;;;;8.93;3.53;;;12.00;99.90;;;;;;4993280;28;20209;-78
2021/12/30 06:13:11;;;;;;;6.87;3.70;;;11.90;99.90;;;;;;4993435;28;20282;-83
2021/12/30 06:15:37;;;;;;;9.43;4.30;;;11.80;99.90;;;;;;4990653;28;20230;-78
2021/12/30 06:18:04;;;;;;;9.20;3.47;;;11.80;99.90;;;;;;4985233;28;20625;-78
2021/12/30 06:20:31;;;;;;;7.77;3.67;;;11.90;99.90;;;;;;4988538;28;20192;-82
2021/12/30 06:22:58;;;;;;;8.17;3.73;;;11.90;99.90;;;;;;4986635;28;20202;-80
2021/12/30 06:25:25;;;;;;;7.87;3.77;;;11.90;99.90;;;;;;4986634;28;20220;-79
2021/12/30 06:27:55;;;;;;;10.00;3.80;;;11.90;99.90;;;;;;4990584;28;20212;-79
2021/12/30 06:30:22;;;;;;;9.70;3.73;;;11.90;99.90;;;;;;4986684;28;20211;-79
2021/12/30 06:32:50;;;;;;;10.20;3.83;;;11.80;99.90;;;;;;4986386;28;20207;-78
2021/12/30 06:35:17;;;;;;;10.13;3.63;;;11.90;99.90;;;;;;4991433;28;20730;-78
2021/12/30 06:37:43;;;;;;;10.20;4.00;;;11.90;99.90;;;;;;4986851;28;20201;-78
2021/12/30 06:40:12;;;;;;;5.67;3.53;;;11.90;99.90;;;;;;4989719;28;20214;-80
2021/12/30 06:42:41;;;;;;;12.53;4.50;;;11.90;99.90;;;;;;4987693;28;20208;-79
2021/12/30 06:45:09;;;;;;;9.83;4.90;;;11.90;99.90;;;;;;4989983;28;20239;-80
2021/12/30 06:47:41;;;;;;;7.37;3.97;;;12.10;99.90;;;;;;4986408;28;20228;-80
2021/12/30 06:50:11;;;;;;;13.33;4.90;;;12.00;99.90;;;;;;4988792;28;20208;-80
2021/12/30 06:52:38;;;;;;;9.27;4.30;;;12.10;99.90;;;;;;4987868;28;20652;-82
2021/12/30 06:55:05;;;;;;;10.33;5.00;;;12.10;99.90;;;;;;4991217;28;20219;-79
2021/12/30 06:57:32;;;;;;;9.23;4.20;;;12.10;99.90;;;;;;4984924;28;20255;-82
2021/12/30 06:59:58;;;;;;;8.80;4.30;;;12.10;99.90;;;;;;4988523;28;20202;-82
2021/12/30 07:02:25;;;;;;;6.63;3.80;;;12.10;99.90;;;;;;4990382;28;20201;-80
2021/12/30 07:04:52;;;;;;;9.00;4.10;;;12.00;99.90;;;;;;4981167;28;20301;-84
2021/12/30 07:07:19;;;;;;;7.70;4.37;;;12.10;99.90;;;;;;4991719;28;20190;-83
2021/12/30 07:09:47;;;;;;;8.80;4.60;;;12.20;99.90;;;;;;4991183;28;20197;-81
2021/12/30 07:12:14;;;;;;;11.20;4.70;;;12.10;99.90;;;;;;4991798;28;20214;-81
2021/12/30 07:14:41;;;;;;;11.10;4.70;;;12.10;99.90;;;;;;4980956;28;20228;-81
2021/12/30 07:17:07;;;;;;;9.03;4.03;;;12.00;99.90;;;;;;4974508;28;20226;-79
2021/12/30 07:19:34;;;;;;;7.17;4.40;;;11.90;99.90;;;;;;4982508;28;20561;-79
2021/12/30 07:22:01;;;;;;;9.53;5.03;;;12.00;99.90;;;;;;4985182;28;20203;-81
2021/12/30 07:24:28;;;;;;;7.87;4.00;;;12.00;99.90;;;;;;4987145;28;20384;-80
2021/12/30 07:26:54;;;;;;;10.20;5.27;;;11.90;99.90;;;;;;4985572;28;20223;-81
2021/12/30 07:29:21;;;;;;;8.37;5.10;;;11.90;99.90;;;;;;4986297;28;20474;-79
2021/12/30 07:31:48;;;;;;;10.90;5.40;;;11.90;99.90;;;;;;4986172;28;20659;-78
2021/12/30 07:34:15;;;;;;;10.10;5.97;;;11.90;99.90;;;;;;4984902;28;20278;-81
2021/12/30 07:36:42;;;;;;;13.20;5.97;;;11.90;99.90;;;;;;4983854;28;20712;-79
2021/12/30 07:39:09;;;;;;;11.77;5.40;;;12.00;99.90;;;;;;4985109;28;20434;-77
2021/12/30 07:41:36;;;;;;;10.30;5.43;;;12.00;99.90;;;;;;4985098;28;20202;-79
2021/12/30 07:44:03;;;;;;;11.10;4.40;;;12.00;99.90;;;;;;4985373;28;20227;-77
2021/12/30 07:46:31;;;;;;;9.37;4.57;;;12.10;99.90;;;;;;4983859;28;20241;-73
2021/12/30 07:48:57;;;;;;;8.40;4.00;;;12.10;99.90;;;;;;4985147;28;20203;-80
2021/12/30 07:51:24;;;;;;;9.37;4.73;;;12.20;99.90;;;;;;4985207;28;20220;-82
2021/12/30 07:53:51;;;;;;;8.77;4.70;;;12.30;99.90;;;;;;4981519;28;20252;-80
2021/12/30 07:56:17;;;;;;;13.10;4.27;;;12.40;99.90;;;;;;4982984;28;20221;-78
2021/12/30 07:58:44;;;;;;;9.03;3.87;;;12.40;99.90;;;;;;4983651;28;20213;-79
2021/12/30 08:01:13;;;;;;;6.73;3.33;;;12.40;99.90;;;;;;4980764;28;20600;-77
2021/12/30 08:03:40;;;;;;;7.93;3.80;;;12.50;99.90;;;;;;4985003;28;20236;-79
2021/12/30 08:06:07;;;;;;;6.90;3.70;;;12.60;99.90;;;;;;4981995;28;20209;-76
2021/12/30 08:08:34;;;;;;;5.10;3.00;;;12.60;99.90;;;;;;4981032;28;20762;-76
2021/12/30 08:11:01;;;;;;;6.80;3.10;;;12.70;99.90;;;;;;4984884;28;20217;-77
2021/12/30 08:13:27;;;;;;;8.27;3.97;;;12.70;99.90;;;;;;4986407;28;20208;-75
2021/12/30 08:15:54;;;;;;;6.00;3.13;;;12.90;99.90;;;;;;4983930;28;20220;-75
2021/12/30 08:18:21;;;;;;;7.73;3.43;;;13.00;99.90;;;;;;4984478;28;20216;-75
2021/12/30 08:20:47;;;;;;;6.53;3.07;;;13.00;99.90;;;;;;4985328;28;20209;-74
2021/12/30 08:23:14;;;;;;;7.17;3.20;;;13.00;99.90;;;;;;4985966;28;20201;-70
2021/12/30 08:25:41;;;;;;;4.50;3.20;;;13.30;99.90;;;;;;4980415;28;20740;-72
2021/12/30 08:28:08;;;;;;;7.27;3.37;;;13.20;99.90;;;;;;4981975;28;20201;-75
2021/12/30 08:30:34;;;;;;;7.00;3.27;;;13.10;99.90;;;;;;4985105;28;20250;-85
2021/12/30 08:33:01;;;;;;;5.17;3.03;;;13.00;99.90;;;;;;4978233;28;20220;-78
2021/12/30 08:35:28;;;;;;;6.40;3.10;;;13.00;99.90;;;;;;4984600;28;20217;-74
2021/12/30 08:37:54;;;;;;;6.00;3.60;;;13.10;99.90;;;;;;4984456;28;20349;-74
2021/12/30 08:40:22;;;;;;;4.17;2.80;;;13.30;99.90;;;;;;4985996;28;20197;-75
2021/12/30 08:42:48;;;;;;;4.93;3.13;;;13.40;99.90;;;;;;4987041;28;20201;-71
2021/12/30 08:45:16;;;;;;;6.43;2.90;;;13.40;99.90;;;;;;4985608;28;20275;-67
2021/12/30 08:47:43;;;;;;;6.07;2.87;;;13.70;99.90;;;;;;4986675;28;20205;-72
2021/12/30 08:50:13;;;;;;;5.33;2.70;;;13.90;99.90;;;;;;5000209;28;20267;-72
2021/12/30 08:52:41;;;;;;;5.90;2.60;;;14.00;99.90;;;;;;4985436;28;20308;-71
2021/12/30 08:55:08;;;;;;;6.10;3.03;;;14.10;99.90;;;;;;4986112;28;20296;-71
2021/12/30 08:57:38;;;;;;;4.00;2.43;;;14.10;99.90;;;;;;4985291;28;20307;-72
2021/12/30 09:00:11;;;;;;;3.90;2.07;;;14.00;99.90;;;;;;4981803;28;20204;-79
2021/12/30 09:02:38;;;;;;;4.07;2.20;;;14.00;99.90;;;;;;4984296;28;20216;-73
2021/12/30 09:05:06;;;;;;;3.77;2.27;;;14.20;99.90;;;;;;4984948;28;20590;-70
2021/12/30 09:07:32;;;;;;;5.60;2.10;;;14.30;99.90;;;;;;4983031;28;20673;-74
2021/12/30 09:09:59;;;;;;;2.93;2.23;;;14.30;99.90;;;;;;4983810;28;20201;-74
2021/12/30 09:12:26;;;;;;;3.47;2.20;;;14.30;99.90;;;;;;4984948;28;20212;-70
2021/12/30 09:15:16;;;;;;;3.03;2.20;;;14.40;99.90;;;;;;4985528;28;20221;-71
2021/12/30 09:17:45;;;;;;;4.03;2.17;;;14.50;99.90;;;;;;4985068;28;20225;-70
2021/12/30 09:20:13;;;;;;;3.27;2.00;;;14.60;99.90;;;;;;4982873;28;20673;-71
2021/12/30 09:22:40;;;;;;;2.93;2.20;;;14.70;99.90;;;;;;4980962;28;20270;-72
2021/12/30 09:25:08;;;;;;;4.17;2.90;;;14.60;99.90;;;;;;4980732;28;20217;-71
2021/12/30 09:27:36;;;;;;;3.23;2.40;;;14.60;99.90;;;;;;4983760;28;20235;-72
2021/12/30 09:30:08;;;;;;;5.13;2.47;;;14.70;99.90;;;;;;4982315;28;20343;-70
2021/12/30 09:32:39;;;;;;;4.63;2.27;;;14.80;99.90;;;;;;4996947;28;20215;-68
2021/12/30 09:35:07;;;;;;;4.27;3.20;;;14.90;99.90;;;;;;4982456;28;22215;-73
2021/12/30 09:37:33;;;;;;;5.03;3.10;;;15.10;99.90;;;;;;4983584;28;20212;-70
2021/12/30 09:40:01;;;;;;;3.43;2.80;;;15.00;99.90;;;;;;4982427;28;20649;-71
2021/12/30 09:42:28;;;;;;;3.93;2.80;;;15.00;99.90;;;;;;4982213;28;20200;-69
2021/12/30 09:44:55;;;;;;;3.13;2.47;;;15.00;99.90;;;;;;4984983;28;20213;-70
2021/12/30 09:47:22;;;;;;;2.73;2.47;;;15.00;99.90;;;;;;4983603;28;20286;-72
2021/12/30 09:49:52;;;;;;;3.87;2.47;;;15.20;99.90;;;;;;4982277;28;20287;-70
2021/12/30 09:52:21;;;;;;;3.20;2.60;;;15.10;99.90;;;;;;4984568;28;20212;-71
2021/12/30 09:54:48;;;;;;;4.93;2.67;;;15.30;99.90;;;;;;4984745;28;20225;-72
2021/12/30 09:57:14;;;;;;;4.73;3.03;;;15.50;99.90;;;;;;4983503;28;20225;-71
2021/12/30 09:59:41;;;;;;;5.80;2.73;;;15.50;99.90;;;;;;4979841;28;20208;-71
2021/12/30 10:02:08;;;;;;;5.00;2.50;;;15.60;99.90;;;;;;4981325;28;20841;-68
2021/12/30 10:04:36;;;;;;;2.93;2.00;;;15.70;99.90;;;;;;4982879;28;20228;-69
2021/12/30 10:07:16;;;;;;;3.77;2.27;;;16.00;99.90;;;;;;4982361;28;20197;-70
2021/12/30 10:10:03;;;;;;;5.60;2.50;;;16.00;99.90;;;;;;4983459;28;20208;-68
2021/12/30 10:12:44;;;;;;;3.60;2.30;;;16.10;99.90;;;;;;4984117;28;20217;-70
2021/12/30 10:15:11;;;;;;;1.90;1.70;;;16.20;99.90;;;;;;4983487;28;20226;-69
2021/12/30 10:17:38;;;;;;;3.50;2.00;;;16.20;99.90;;;;;;4981824;28;20228;-69
2021/12/30 10:20:18;;;;;;;3.30;1.97;;;16.30;99.90;;;;;;4981091;28;20208;-69
2021/12/30 10:22:49;;;;;;;2.93;2.20;;;16.30;99.90;;;;;;4983529;28;20668;-71
2021/12/30 10:25:36;;;;;;;3.17;1.70;;;16.50;99.90;;;;;;4980687;28;20217;-69
2021/12/30 10:28:35;;;;;;;2.40;1.67;;;16.60;99.90;;;;;;4978486;28;20795;-70
2021/12/30 10:31:10;;;;;;;3.57;2.30;;;16.70;99.90;;;;;;4982279;28;20576;-69
2021/12/30 10:33:45;;;;;;;2.10;1.40;;;16.70;99.90;;;;;;4979046;28;20204;-72
2021/12/30 10:36:26;;;;;;;2.40;1.80;;;16.60;99.90;;;;;;4983112;28;20285;-71
2021/12/30 10:38:54;;;;;;;2.73;1.23;;;16.70;99.90;;;;;;4983656;28;20197;-69
2021/12/30 10:41:23;;;;;;;2.10;1.10;;;16.60;99.90;;;;;;4986208;28;20203;-70
2021/12/30 10:43:57;;;;;;;2.97;2.20;;;16.70;99.90;;;;;;4983526;28;20303;-71
2021/12/30 10:46:28;;;;;;;1.83;1.10;;;16.60;99.90;;;;;;4985662;28;20271;-70
2021/12/30 10:48:57;;;;;;;1.70;1.30;;;16.70;99.90;;;;;;4986808;28;20234;-71
2021/12/30 10:51:35;;;;;;;0.93;0.80;;;16.80;99.90;;;;;;4986166;28;20216;-73
2021/12/30 10:54:15;;;;;;;1.30;1.10;;;16.90;99.90;;;;;;4985233;28;20965;-71
2021/12/30 10:56:47;;;;;;;1.57;1.20;;;16.90;99.90;;;;;;4984419;28;20220;-72
2021/12/30 10:59:26;;;;;;;1.57;0.83;;;16.80;99.90;;;;;;4986755;28;20205;-70
2021/12/30 11:02:04;;;;;;;0.87;0.80;;;16.90;99.90;;;;;;4986157;28;20251;-72
2021/12/30 11:04:41;;;;;;;1.10;1.00;;;16.90;99.90;;;;;;4982394;28;20227;-69
2021/12/30 11:07:12;;;;;;;1.33;1.13;;;17.10;99.90;;;;;;4985369;28;20201;-69
2021/12/30 11:09:54;;;;;;;1.40;1.20;;;17.10;99.90;;;;;;4986610;28;20209;-70
2021/12/30 11:12:29;;;;;;;5.00;0.97;;;17.10;99.90;;;;;;4983934;28;20615;-71
2021/12/30 11:14:57;;;;;;;2.50;0.90;;;17.10;99.90;;;;;;4985425;28;20224;-71
2021/12/30 11:17:33;;;;;;;2.13;1.10;;;17.30;99.90;;;;;;4985433;28;20224;-69
2021/12/30 11:20:03;;;;;;;4.00;0.70;;;17.40;99.90;;;;;;4983854;28;20200;-69
2021/12/30 11:22:31;;;;;;;0.90;0.90;;;17.60;99.90;;;;;;4984407;28;20201;-69
2021/12/30 11:25:00;;;;;;;1.53;0.90;;;17.80;99.90;;;;;;4984806;28;20224;-73
2021/12/30 11:27:28;;;;;;;1.10;0.80;;;18.00;99.90;;;;;;4982614;28;20209;-69
2021/12/30 11:30:01;;;;;;;2.10;1.40;;;18.20;99.90;;;;;;4983706;28;20674;-71
2021/12/30 11:32:30;;;;;;;0.60;0.60;;;18.50;99.90;;;;;;4985548;28;20197;-69
2021/12/30 11:34:58;;;;;;;0.67;0.50;;;18.60;99.90;;;;;;4983656;28;20224;-72
2021/12/30 11:37:26;;;;;;;0.77;0.50;;;18.80;99.90;;;;;;4983771;28;20224;-69
2021/12/30 11:39:57;;;;;;;0.43;0.40;;;18.80;99.90;;;;;;4983762;28;20201;-73
2021/12/30 11:42:37;;;;;;;0.50;0.43;;;18.80;99.90;;;;;;4984070;28;20197;-69
2021/12/30 11:45:24;;;;;;;0.73;0.50;;;18.50;99.90;;;;;;4984232;28;20224;-71
2021/12/30 11:47:52;;;;;;;0.40;0.40;;;18.50;99.90;;;;;;4980005;28;20394;-72
2021/12/30 11:50:29;;;;;;;0.90;0.40;;;18.60;99.90;;;;;;4980391;28;20205;-69
2021/12/30 11:53:11;;;;;;;0.50;0.47;;;18.60;99.90;;;;;;4982068;28;20212;-70
2021/12/30 11:55:50;;;;;;;0.60;0.60;;;18.50;99.90;;;;;;4985978;28;20225;-70
2021/12/30 11:58:35;;;;;;;0.60;0.50;;;18.10;99.90;;;;;;4981973;28;20316;-69
2021/12/30 12:01:24;;;;;;;0.50;0.40;;;17.90;99.90;;;;;;4982114;28;20209;-71
2021/12/30 12:03:54;;;;;;;1.17;0.50;;;17.80;99.90;;;;;;4981761;28;20221;-72
2021/12/30 12:06:56;;;;;;;0.37;0.37;;;17.70;99.90;;;;;;4983156;28;20216;-69
2021/12/30 12:09:30;;;;;;;0.80;0.60;;;17.60;99.90;;;;;;4982607;28;20197;-69
2021/12/30 12:12:03;;;;;;;0.60;0.60;;;17.70;99.90;;;;;;4981061;28;20209;-72
2021/12/30 12:14:51;;;;;;;0.97;0.50;;;17.70;99.90;;;;;;4984004;28;20731;-69
2021/12/30 12:17:36;;;;;;;0.43;0.40;;;17.80;99.90;;;;;;4984312;28;20605;-69
2021/12/30 12:20:17;;;;;;;0.80;0.53;;;17.80;99.90;;;;;;4983048;28;20193;-69
2021/12/30 12:22:44;;;;;;;1.60;1.00;;;17.70;99.90;;;;;;4981577;28;20193;-71
2021/12/30 12:25:16;;;;;;;0.60;0.60;;;17.80;99.90;;;;;;4983847;28;20209;-70
2021/12/30 12:27:47;;;;;;;0.57;0.50;;;17.70;99.90;;;;;;4982003;28;20216;-70
2021/12/30 12:30:32;;;;;;;0.57;0.50;;;17.50;99.90;;;;;;4983644;28;20205;-73
2021/12/30 12:33:20;;;;;;;0.50;0.50;;;17.60;99.90;;;;;;4982223;28;20205;-70
2021/12/30 12:35:47;;;;;;;0.40;0.40;;;17.70;99.90;;;;;;4984471;28;20293;-69
2021/12/30 12:38:14;;;;;;;0.77;0.57;;;17.90;99.90;;;;;;4982505;28;20225;-69
2021/12/30 12:40:43;;;;;;;0.60;0.40;;;18.10;99.90;;;;;;4983013;28;20720;-71
2021/12/30 12:43:16;;;;;;;0.60;0.60;;;18.40;99.90;;;;;;4984474;28;20544;-70
2021/12/30 12:45:48;;;;;;;0.88;0.70;;;18.40;99.90;;;;;;4983252;28;21594;-71
2021/12/30 12:48:21;;;;;;;1.00;0.60;;;18.50;99.90;;;;;;4981671;28;20697;-71
2021/12/30 12:50:50;;;;;;;0.77;0.68;;;18.50;99.90;;;;;;4983587;28;20579;-71
2021/12/30 12:53:26;;;;;;;0.80;0.70;;;18.60;99.90;;;;;;4981262;28;20196;-70
2021/12/30 12:55:59;;;;;;;2.30;1.50;;;18.70;99.90;;;;;;4984374;28;20278;-70